createdAt,value
2019-03-20T00:01:13.273Z,6.30
2019-03-20T00:03:44.019Z,6.50
2019-03-20T00:06:23.160Z,6.50
2019-03-20T00:08:55.235Z,6.50
2019-03-20T00:11:25.758Z,6.50
2019-03-20T00:13:57.010Z,6.40
2019-03-20T00:16:28.055Z,6.30
2019-03-20T00:18:58.535Z,6.20
2019-03-20T00:21:29.843Z,6.30
2019-03-20T00:24:01.219Z,6.50
2019-03-20T00:26:34.894Z,6.80
2019-03-20T00:29:06.765Z,6.90
2019-03-20T00:31:37.319Z,7.10
2019-03-20T00:34:07.765Z,7.20
2019-03-20T00:36:39.459Z,7.40
2019-03-20T00:39:11.937Z,7.70
2019-03-20T00:41:42.422Z,7.90
2019-03-20T00:44:13.316Z,7.90
2019-03-20T00:46:44.269Z,7.80
2019-03-20T00:49:14.723Z,7.70
2019-03-20T00:51:45.556Z,7.50
2019-03-20T00:54:16.344Z,7.50
2019-03-20T00:56:46.698Z,7.50
2019-03-20T00:59:17.098Z,7.40
2019-03-20T01:01:47.863Z,7.40
2019-03-20T01:04:18.239Z,7.20
2019-03-20T01:06:53.076Z,7.00
2019-03-20T01:09:24.058Z,6.90
2019-03-20T01:11:55.226Z,6.80
2019-03-20T01:14:27.975Z,6.70
2019-03-20T01:16:58.814Z,6.60
2019-03-20T01:19:29.316Z,6.50
2019-03-20T01:22:02.652Z,6.80
2019-03-20T01:24:33.928Z,7.10
2019-03-20T01:27:07.685Z,7.40
2019-03-20T01:29:38.227Z,7.70
2019-03-20T01:32:08.977Z,8.00
2019-03-20T01:34:46.452Z,8.10
2019-03-20T01:37:16.804Z,8.10
2019-03-20T01:39:47.227Z,8.10
2019-03-20T01:42:19.182Z,8.10
2019-03-20T01:44:59.369Z,8.20
2019-03-20T01:47:32.250Z,8.20
2019-03-20T01:50:02.677Z,8.00
2019-03-20T01:52:35.432Z,7.80
2019-03-20T01:55:07.212Z,7.50
2019-03-20T01:57:39.865Z,7.40
2019-03-20T02:06:56.374Z,7.50
2019-03-20T02:10:44.450Z,7.30
2019-03-20T02:36:40.621Z,6.70
2019-03-20T02:50:28.573Z,7.30
2019-03-20T02:58:59.656Z,7.80
2019-03-20T03:03:08.245Z,7.60
2019-03-20T03:05:38.540Z,7.60
2019-03-20T03:08:08.983Z,7.80
2019-03-20T03:10:40.679Z,8.10
2019-03-20T03:13:10.914Z,8.30
2019-03-20T03:15:57.272Z,8.50
2019-03-20T03:23:04.056Z,8.70
2019-03-20T03:26:37.168Z,8.70
2019-03-20T03:33:18.735Z,8.30
2019-03-20T03:36:58.605Z,8.20
2019-03-20T03:40:13.870Z,8.00
2019-03-20T03:47:40.472Z,8.00
2019-03-20T03:50:44.007Z,8.10
2019-03-20T03:54:31.693Z,8.20
2019-03-20T03:59:27.721Z,8.20
2019-03-20T04:01:34.652Z,8.20
2019-03-20T04:05:59.667Z,8.30
2019-03-20T04:17:01.530Z,8.70
2019-03-20T04:20:17.574Z,8.80
2019-03-20T04:23:51.031Z,8.90
2019-03-20T04:27:03.882Z,8.60
2019-03-20T04:31:12.767Z,8.40
2019-03-20T04:34:38.823Z,8.50
2019-03-20T04:38:00.101Z,8.60
2019-03-20T04:48:33.143Z,9.00
2019-03-20T04:51:25.620Z,9.00
2019-03-20T04:54:26.893Z,9.00
2019-03-20T04:57:49.536Z,8.90
2019-03-20T05:01:41.533Z,8.80
2019-03-20T05:05:09.446Z,8.80
2019-03-20T05:08:42.553Z,8.90
2019-03-20T05:15:37.035Z,9.00
2019-03-20T05:22:49.120Z,9.00
2019-03-20T05:26:39.436Z,9.00
2019-03-20T05:29:10.730Z,9.00
2019-03-20T05:31:49.794Z,9.10
2019-03-20T05:34:48.777Z,9.10
2019-03-20T05:42:11.236Z,9.00
2019-03-20T05:45:14.611Z,9.10
2019-03-20T05:47:57.320Z,9.00
2019-03-20T05:52:15.020Z,8.90
2019-03-20T05:54:28.668Z,8.90
2019-03-20T05:58:00.194Z,9.00
2019-03-20T06:01:02.413Z,9.00
2019-03-20T06:21:51.121Z,9.20
2019-03-20T06:36:53.704Z,9.30
2019-03-20T06:40:33.579Z,9.30
2019-03-20T06:44:35.828Z,9.30
2019-03-20T06:59:15.122Z,9.40
2019-03-20T07:25:46.623Z,9.80
2019-03-20T08:06:20.243Z,10.30
2019-03-20T08:08:52.837Z,10.40
2019-03-20T08:11:29.642Z,10.40
2019-03-20T08:14:00.827Z,10.50
2019-03-20T08:16:31.763Z,10.50
2019-03-20T08:19:10.283Z,10.60
2019-03-20T08:21:51.510Z,10.50
2019-03-20T08:24:26.255Z,10.40
2019-03-20T08:26:59.571Z,10.30
2019-03-20T08:29:29.562Z,10.30
2019-03-20T08:32:04.615Z,10.40
2019-03-20T08:34:35.311Z,10.30
2019-03-20T08:37:07.331Z,10.40
2019-03-20T08:39:39.156Z,10.40
2019-03-20T08:42:12.765Z,10.50
2019-03-20T08:44:45.942Z,10.60
2019-03-20T08:47:19.060Z,10.70
2019-03-20T08:49:55.949Z,10.80
2019-03-20T08:52:26.542Z,10.80
2019-03-20T08:54:57.475Z,10.90
2019-03-20T08:57:27.905Z,10.90
2019-03-20T09:00:04.999Z,10.90
2019-03-20T09:02:38.559Z,11.00
2019-03-20T09:05:11.315Z,11.00
2019-03-20T09:07:47.495Z,10.90
2019-03-20T09:10:19.401Z,10.80
2019-03-20T09:12:52.119Z,10.90
2019-03-20T09:15:23.933Z,10.90
2019-03-20T09:17:54.924Z,10.90
2019-03-20T09:20:27.449Z,11.00
2019-03-20T09:22:58.706Z,11.00
2019-03-20T09:25:29.358Z,11.00
2019-03-20T09:28:01.143Z,11.10
2019-03-20T09:30:32.076Z,11.10
2019-03-20T09:33:03.362Z,11.10
2019-03-20T09:35:36.417Z,11.10
2019-03-20T09:38:06.961Z,11.10
2019-03-20T09:40:39.716Z,11.20
2019-03-20T09:43:13.936Z,11.20
2019-03-20T09:45:44.829Z,11.20
2019-03-20T09:48:15.452Z,11.20
2019-03-20T09:50:47.334Z,11.20
2019-03-20T09:53:18.021Z,11.20
2019-03-20T09:55:51.775Z,11.20
2019-03-20T09:58:30.725Z,11.20
2019-03-20T10:01:01.913Z,11.30
2019-03-20T10:03:32.593Z,11.30
2019-03-20T10:06:03.591Z,11.30
2019-03-20T10:08:36.160Z,11.20
2019-03-20T10:11:12.585Z,11.20
2019-03-20T10:13:46.445Z,11.20
2019-03-20T10:16:18.651Z,11.20
2019-03-20T10:18:55.440Z,11.20
2019-03-20T10:21:26.407Z,11.10
2019-03-20T10:23:57.472Z,11.10
2019-03-20T10:26:31.479Z,11.00
2019-03-20T10:29:09.319Z,11.00
2019-03-20T10:31:51.746Z,11.10
2019-03-20T10:34:25.818Z,11.10
2019-03-20T10:36:59.427Z,11.20
2019-03-20T10:39:30.598Z,11.20
2019-03-20T10:42:02.368Z,11.30
2019-03-20T10:44:34.975Z,11.30
2019-03-20T10:47:12.642Z,11.30
2019-03-20T10:49:46.199Z,11.30
2019-03-20T10:52:18.609Z,11.30
2019-03-20T10:54:50.590Z,11.20
2019-03-20T10:57:23.169Z,11.20
2019-03-20T10:59:54.085Z,11.20
2019-03-20T11:02:26.482Z,11.20
2019-03-20T11:04:57.148Z,11.20
2019-03-20T11:07:29.808Z,11.10
2019-03-20T11:10:05.499Z,11.00
2019-03-20T11:13:05.888Z,11.00
2019-03-20T11:15:40.112Z,11.00
2019-03-20T11:18:11.026Z,11.00
2019-03-20T11:20:44.968Z,11.10
2019-03-20T11:23:25.294Z,11.10
2019-03-20T11:26:05.554Z,11.20
2019-03-20T11:28:38.437Z,11.20
2019-03-20T11:31:15.723Z,11.20
2019-03-20T11:33:58.237Z,11.30
2019-03-20T11:36:47.696Z,11.30
2019-03-20T11:39:28.945Z,11.30
2019-03-20T11:41:58.210Z,11.30
2019-03-20T11:44:30.984Z,11.30
2019-03-20T11:47:02.105Z,11.30
2019-03-20T11:49:33.225Z,11.40
2019-03-20T11:52:06.312Z,11.40
2019-03-20T11:54:39.220Z,11.40
2019-03-20T11:57:10.069Z,11.40
2019-03-20T11:59:41.732Z,11.40
2019-03-20T12:02:12.751Z,11.40
2019-03-20T12:04:43.405Z,11.40
2019-03-20T12:07:18.436Z,11.50
2019-03-20T12:09:51.270Z,11.50
2019-03-20T12:12:22.652Z,11.40
2019-03-20T12:15:04.515Z,11.30
2019-03-20T12:17:37.407Z,11.30
2019-03-20T12:20:15.746Z,11.40
2019-03-20T12:22:46.394Z,11.40
2019-03-20T12:25:22.327Z,11.50
2019-03-20T12:27:56.538Z,11.50
2019-03-20T12:30:31.121Z,11.50
2019-03-20T12:33:15.925Z,11.50
2019-03-20T12:35:46.789Z,11.50
2019-03-20T12:38:21.819Z,11.50
2019-03-20T12:40:51.691Z,11.40
2019-03-20T12:43:24.859Z,11.40
2019-03-20T12:45:58.312Z,11.40
2019-03-20T12:48:32.364Z,11.40
2019-03-20T12:51:17.031Z,11.40
2019-03-20T12:53:48.213Z,11.50
2019-03-20T12:56:23.307Z,11.50
2019-03-20T12:58:57.936Z,11.50
2019-03-20T13:01:31.026Z,11.50
2019-03-20T13:04:02.023Z,11.50
2019-03-20T13:06:34.835Z,11.30
2019-03-20T13:09:08.252Z,11.20
2019-03-20T13:11:38.531Z,11.10
2019-03-20T13:14:11.652Z,11.20
2019-03-20T13:16:43.034Z,11.20
2019-03-20T13:19:16.985Z,11.20
2019-03-20T13:21:55.384Z,11.30
2019-03-20T13:24:25.957Z,11.30
2019-03-20T13:26:57.349Z,11.40
2019-03-20T13:29:30.611Z,11.40
2019-03-20T13:32:04.545Z,11.50
2019-03-20T13:34:37.754Z,11.50
2019-03-20T13:37:08.880Z,11.50
2019-03-20T13:39:45.396Z,11.50
2019-03-20T13:42:16.189Z,11.50
2019-03-20T13:44:48.149Z,11.50
2019-03-20T13:47:20.559Z,11.60
2019-03-20T13:49:54.986Z,11.50
2019-03-20T13:52:28.975Z,11.60
2019-03-20T13:55:03.949Z,11.60
2019-03-20T13:57:42.042Z,11.60
2019-03-20T14:00:31.682Z,11.60
2019-03-20T14:03:17.440Z,11.60
2019-03-20T14:05:49.244Z,11.60
2019-03-20T14:08:20.779Z,11.70
2019-03-20T14:11:12.432Z,11.70
2019-03-20T14:13:49.898Z,11.60
2019-03-20T14:16:33.019Z,11.70
2019-03-20T14:19:35.753Z,11.70
2019-03-20T14:22:11.568Z,11.70
2019-03-20T14:24:55.803Z,11.70
2019-03-20T14:27:31.541Z,11.70
2019-03-20T14:30:10.260Z,11.70
2019-03-20T14:32:43.296Z,11.70
2019-03-20T14:35:15.653Z,11.70
2019-03-20T14:38:03.058Z,11.70
2019-03-20T14:40:47.442Z,11.70
2019-03-20T14:43:23.368Z,11.70
2019-03-20T14:46:01.055Z,11.60
2019-03-20T14:48:35.517Z,11.60
2019-03-20T14:51:10.300Z,11.60
2019-03-20T14:53:50.046Z,11.60
2019-03-20T14:56:57.697Z,11.70
2019-03-20T14:59:38.785Z,11.70
2019-03-20T15:02:20.919Z,11.70
2019-03-20T15:05:04.307Z,11.70
2019-03-20T15:07:42.192Z,11.70
2019-03-20T15:11:08.250Z,11.70
2019-03-20T15:27:54.973Z,11.70
2019-03-20T15:30:29.582Z,11.70
2019-03-20T15:34:22.881Z,11.70
2019-03-20T15:37:25.422Z,11.70
2019-03-20T15:40:26.251Z,11.70
2019-03-20T15:43:02.564Z,11.80
2019-03-20T15:49:12.945Z,11.80
2019-03-20T15:51:58.220Z,11.70
2019-03-20T15:55:24.378Z,11.80
2019-03-20T15:57:59.878Z,11.80
2019-03-20T16:01:06.627Z,11.80
2019-03-20T16:03:45.463Z,11.80
2019-03-20T16:06:27.802Z,11.80
2019-03-20T16:09:18.670Z,11.80
2019-03-20T16:11:56.129Z,11.80
2019-03-20T16:14:41.207Z,11.80
2019-03-20T16:17:14.097Z,11.80
2019-03-20T16:19:55.590Z,11.90
2019-03-20T16:22:49.932Z,11.80
2019-03-20T16:25:26.595Z,11.80
2019-03-20T16:28:13.080Z,11.80
2019-03-20T16:31:49.348Z,11.90
2019-03-20T16:39:41.949Z,11.80
2019-03-20T16:42:45.485Z,11.90
2019-03-20T16:45:35.460Z,11.90
2019-03-20T16:52:57.068Z,11.90
2019-03-20T16:59:18.409Z,11.90
2019-03-20T17:02:29.012Z,11.90
2019-03-20T17:05:40.275Z,11.90
2019-03-20T17:13:10.464Z,11.90
2019-03-20T17:16:36.186Z,11.90
2019-03-20T17:19:33.026Z,11.80
2019-03-20T17:26:14.681Z,11.90
2019-03-20T17:29:46.242Z,11.80
2019-03-20T17:32:08.907Z,11.90
2019-03-20T17:34:44.291Z,11.90
2019-03-20T17:37:35.512Z,11.90
2019-03-20T17:40:19.327Z,11.90
2019-03-20T17:42:51.764Z,11.90
2019-03-20T17:46:10.274Z,11.90
2019-03-20T17:49:00.551Z,11.90
2019-03-20T17:52:33.213Z,12.00
2019-03-20T17:55:46.270Z,12.00
2019-03-20T18:06:28.639Z,12.10
2019-03-20T18:09:38.654Z,12.10
2019-03-20T18:12:19.936Z,12.10
2019-03-20T18:15:25.491Z,12.10
2019-03-20T18:34:30.042Z,12.20
2019-03-20T18:37:00.699Z,12.20
2019-03-20T18:39:32.067Z,12.20
2019-03-20T18:42:02.321Z,12.20
2019-03-20T18:44:34.577Z,12.30
2019-03-20T18:47:07.143Z,12.30
2019-03-20T18:49:37.805Z,12.20
2019-03-20T18:52:12.945Z,12.30
2019-03-20T18:54:44.374Z,12.30
2019-03-20T18:57:16.486Z,12.30
2019-03-20T18:59:53.822Z,12.30
2019-03-20T19:02:24.143Z,12.30
2019-03-20T19:04:54.855Z,12.30
2019-03-20T19:07:25.082Z,12.30
2019-03-20T19:09:57.255Z,12.30
2019-03-20T19:12:28.211Z,12.30
2019-03-20T19:14:59.915Z,12.30
2019-03-20T19:17:31.210Z,12.30
2019-03-20T19:20:01.560Z,12.30
2019-03-20T19:22:32.846Z,12.30
2019-03-20T19:25:03.252Z,12.30
2019-03-20T19:27:34.266Z,12.30
2019-03-20T19:30:05.319Z,12.30
2019-03-20T19:32:36.138Z,12.30
2019-03-20T19:35:08.132Z,12.30
2019-03-20T19:37:39.478Z,12.30
2019-03-20T19:40:11.031Z,12.30
2019-03-20T19:42:41.498Z,12.30
2019-03-20T19:45:23.995Z,12.30
2019-03-20T19:47:54.321Z,12.30
2019-03-20T19:50:24.699Z,12.30
2019-03-20T19:52:56.061Z,12.20
2019-03-20T19:55:26.320Z,12.30
2019-03-20T19:57:56.899Z,12.30
2019-03-20T20:00:29.416Z,12.20
2019-03-20T20:03:00.763Z,12.20
2019-03-20T20:05:31.768Z,12.20
